Terminal Aerodrome Forecast
Issued by NWS

Home | Current Version | Previous Version | Text Only | Print | Product List | Glossary On
Versions: 1 2 3 4 5 6 7 8 9 10 11 12 13
489
FTUS45 KRIW 261136
TAFRKS
TAF
KRKS 261136Z 2612/2712 11010KT P6SM VCTS SCT050CB BKN100
     FM261800 19015G23KT P6SM VCTS BKN060CB
     FM262100 28017G27KT P6SM -SHRA VCTS SCT030 BKN050CB
     FM270100 29013G21KT P6SM SCT060
     FM270400 26009KT P6SM SCT090
     FM271000 34007KT P6SM SCT030=

USA.gov is the U.S. government's official web portal to all federal, state and local government web resources and services.